Time;durP1;ratioP1;P1;durP2;ratioP2;P2;SDS_P1;SDS_P2;PMS_P1;PMS_P2;Temp;Humidity;BMP_temperature;BMP_pressure;BME280_temperature;BME280_humidity;BME280_pressure;Samples;Min_cycle;Max_cycle;Signal;HPM_P1;HPM_P2
2023/10/31 00:01:43;;;;;;;3.90;1.33;;;;;;;;;;4969633;28;92811;-81
2023/10/31 00:04:10;;;;;;;3.25;1.33;;;;;;;;;;4968570;28;93325;-80
2023/10/31 00:06:36;;;;;;;4.97;1.13;;;;;;;;;;4977130;28;93080;-83
2023/10/31 00:09:03;;;;;;;2.83;1.00;;;;;;;;;;4969950;28;92805;-83
2023/10/31 00:11:29;;;;;;;3.60;1.30;;;;;;;;;;4969802;28;93820;-84
2023/10/31 00:13:56;;;;;;;1.92;1.10;;;;;;;;;;4971817;28;93147;-83
2023/10/31 00:16:23;;;;;;;3.55;1.17;;;;;;;;;;4974648;28;91994;-83
2023/10/31 00:18:50;;;;;;;4.70;1.17;;;;;;;;;;4971263;28;93188;-83
2023/10/31 00:21:16;;;;;;;3.58;1.10;;;;;;;;;;4970414;28;92613;-83
2023/10/31 00:23:46;;;;;;;3.45;1.20;;;;;;;;;;4974321;28;94755;-84
2023/10/31 00:26:13;;;;;;;2.60;1.10;;;;;;;;;;4972931;27;93267;-83
2023/10/31 00:28:46;;;;;;;2.65;1.10;;;;;;;;;;4967163;28;92530;-83
2023/10/31 00:31:14;;;;;;;3.33;1.10;;;;;;;;;;4963051;28;93100;-83
2023/10/31 00:33:40;;;;;;;3.45;1.05;;;;;;;;;;4969054;28;92871;-83
2023/10/31 00:36:08;;;;;;;3.45;1.05;;;;;;;;;;4969772;28;92511;-83
2023/10/31 00:38:34;;;;;;;2.72;1.08;;;;;;;;;;4970842;28;99317;-83
2023/10/31 00:41:01;;;;;;;4.22;1.20;;;;;;;;;;4967859;28;91986;-84
2023/10/31 00:43:27;;;;;;;2.85;1.15;;;;;;;;;;4968984;28;92672;-81
2023/10/31 00:45:54;;;;;;;4.03;1.20;;;;;;;;;;4968892;28;92941;-82
2023/10/31 00:48:20;;;;;;;3.67;1.20;;;;;;;;;;4966796;28;95252;-82
2023/10/31 00:50:47;;;;;;;5.35;1.33;;;;;;;;;;4969036;28;95129;-82
2023/10/31 00:53:14;;;;;;;2.20;1.15;;;;;;;;;;4968529;28;92499;-81
2023/10/31 00:55:41;;;;;;;3.65;1.38;;;;;;;;;;4969447;28;93920;-81
2023/10/31 00:58:07;;;;;;;3.35;1.20;;;;;;;;;;4969044;28;92993;-80
2023/10/31 01:00:34;;;;;;;6.10;1.52;;;;;;;;;;4971527;28;93633;-81
2023/10/31 01:03:00;;;;;;;4.57;1.35;;;;;;;;;;4969213;28;93159;-81
2023/10/31 01:05:28;;;;;;;4.82;1.48;;;;;;;;;;4975248;28;92390;-81
2023/10/31 01:07:57;;;;;;;2.85;1.30;;;;;;;;;;4967170;28;92488;-81
2023/10/31 01:10:24;;;;;;;4.03;1.50;;;;;;;;;;4967065;28;92750;-81
2023/10/31 01:12:51;;;;;;;3.95;1.40;;;;;;;;;;4966307;28;95691;-80
2023/10/31 01:15:18;;;;;;;5.13;1.73;;;;;;;;;;4966313;28;92680;-81
2023/10/31 01:17:44;;;;;;;5.45;1.70;;;;;;;;;;4949314;28;94076;-81
2023/10/31 01:20:11;;;;;;;3.42;1.48;;;;;;;;;;4967108;28;94503;-80
2023/10/31 01:22:38;;;;;;;4.32;1.60;;;;;;;;;;4970093;28;92467;-83
2023/10/31 01:25:04;;;;;;;7.90;2.00;;;;;;;;;;4968530;28;93653;-82
2023/10/31 01:27:31;;;;;;;5.85;1.98;;;;;;;;;;4968041;28;92522;-82
2023/10/31 01:29:57;;;;;;;5.32;2.00;;;;;;;;;;4966991;28;93324;-82
2023/10/31 01:32:24;;;;;;;5.60;1.83;;;;;;;;;;4964979;28;95865;-82
2023/10/31 01:34:51;;;;;;;7.47;1.80;;;;;;;;;;4966073;28;92680;-82
2023/10/31 01:37:19;;;;;;;5.82;1.90;;;;;;;;;;4966377;28;94902;-82
2023/10/31 01:39:46;;;;;;;5.57;1.70;;;;;;;;;;4966701;28;93065;-82
2023/10/31 01:42:15;;;;;;;5.60;1.58;;;;;;;;;;4970341;28;92785;-82
2023/10/31 01:44:42;;;;;;;4.50;1.90;;;;;;;;;;4967972;28;93179;-82
2023/10/31 01:47:08;;;;;;;4.80;1.58;;;;;;;;;;4967661;28;92400;-82
2023/10/31 01:49:36;;;;;;;3.83;1.70;;;;;;;;;;4966707;28;93089;-82
2023/10/31 01:52:03;;;;;;;6.85;1.88;;;;;;;;;;4966074;28;93068;-83
2023/10/31 01:54:30;;;;;;;4.82;1.95;;;;;;;;;;4966439;28;91930;-82
2023/10/31 01:56:58;;;;;;;7.78;2.00;;;;;;;;;;4966612;28;93163;-82
2023/10/31 01:59:24;;;;;;;;;;;;;;;;;;4972744;28;94368;-83
2023/10/31 02:01:54;;;;;;;6.43;1.80;;;;;;;;;;4945489;28;103608;-82
2023/10/31 02:04:22;;;;;;;6.70;2.00;;;;;;;;;;4970550;28;95277;-82
2023/10/31 02:06:48;;;;;;;7.72;1.85;;;;;;;;;;4971623;28;92503;-82
2023/10/31 02:09:15;;;;;;;7.68;2.00;;;;;;;;;;4968657;28;93663;-82
2023/10/31 02:11:42;;;;;;;5.55;1.83;;;;;;;;;;4966802;28;93949;-82
2023/10/31 02:14:08;;;;;;;5.20;1.80;;;;;;;;;;4968305;28;92507;-82
2023/10/31 02:16:34;;;;;;;7.18;2.00;;;;;;;;;;4968177;28;99201;-82
2023/10/31 02:19:02;;;;;;;5.90;2.00;;;;;;;;;;4957829;28;93118;-82
2023/10/31 02:21:29;;;;;;;3.92;1.80;;;;;;;;;;4972542;28;92529;-81
2023/10/31 02:24:00;;;;;;;16.75;2.45;;;;;;;;;;4970082;28;93278;-81
2023/10/31 02:26:30;;;;;;;7.88;1.92;;;;;;;;;;4975246;28;98622;-81
2023/10/31 02:28:56;;;;;;;7.20;2.00;;;;;;;;;;4977342;28;93964;-81
2023/10/31 02:31:23;;;;;;;7.00;1.83;;;;;;;;;;4989815;28;94682;-82
2023/10/31 02:33:50;;;;;;;5.18;2.05;;;;;;;;;;4987867;28;92306;-82
2023/10/31 02:36:17;;;;;;;5.93;1.80;;;;;;;;;;4988101;28;92426;-81
2023/10/31 02:38:43;;;;;;;4.78;2.00;;;;;;;;;;4977206;28;92413;-82
2023/10/31 02:41:10;;;;;;;4.95;1.88;;;;;;;;;;4974485;28;92464;-82
2023/10/31 02:43:37;;;;;;;5.95;1.90;;;;;;;;;;4973775;28;92974;-82
2023/10/31 02:46:04;;;;;;;3.53;1.80;;;;;;;;;;4965704;28;93863;-83
2023/10/31 02:48:37;;;;;;;5.30;1.88;;;;;;;;;;4974620;28;92508;-83
2023/10/31 02:51:04;;;;;;;5.93;2.00;;;;;;;;;;4969997;28;96267;-83
2023/10/31 02:53:31;;;;;;;4.93;1.75;;;;;;;;;;4969538;28;92576;-83
2023/10/31 02:55:57;;;;;;;6.05;1.70;;;;;;;;;;4969006;28;96888;-82
2023/10/31 02:58:24;;;;;;;6.15;1.67;;;;;;;;;;4969983;28;93618;-82
2023/10/31 03:00:50;;;;;;;5.15;1.75;;;;;;;;;;4968938;28;92483;-82
2023/10/31 03:03:17;;;;;;;5.45;1.80;;;;;;;;;;4968943;28;93346;-81
2023/10/31 03:05:44;;;;;;;5.18;1.70;;;;;;;;;;4961625;28;93443;-82
2023/10/31 03:08:11;;;;;;;4.75;1.60;;;;;;;;;;4970522;28;91783;-81
2023/10/31 03:10:38;;;;;;;6.15;1.83;;;;;;;;;;4955746;28;95029;-81
2023/10/31 03:13:05;;;;;;;4.95;1.50;;;;;;;;;;4970346;28;92505;-82
2023/10/31 03:15:31;;;;;;;4.05;1.60;;;;;;;;;;4966525;28;94831;-82
2023/10/31 03:17:58;;;;;;;5.03;1.63;;;;;;;;;;4969590;28;93223;-80
2023/10/31 03:20:24;;;;;;;4.55;1.52;;;;;;;;;;4968844;28;93986;-80
2023/10/31 03:22:51;;;;;;;6.72;1.63;;;;;;;;;;4961274;28;92410;-80
2023/10/31 03:25:18;;;;;;;4.85;1.52;;;;;;;;;;4984356;28;94163;-81
2023/10/31 03:27:45;;;;;;;5.80;1.50;;;;;;;;;;4969829;28;93102;-83
2023/10/31 03:30:13;;;;;;;4.28;1.55;;;;;;;;;;4958362;28;92694;-82
2023/10/31 03:32:39;;;;;;;5.45;1.50;;;;;;;;;;4972519;28;92293;-82
2023/10/31 03:35:06;;;;;;;5.50;1.92;;;;;;;;;;4977467;28;92672;-83
2023/10/31 03:37:32;;;;;;;4.95;1.70;;;;;;;;;;4968713;28;93229;-82
2023/10/31 03:39:59;;;;;;;7.13;1.73;;;;;;;;;;4968052;28;95085;-82
2023/10/31 03:42:25;;;;;;;4.00;1.60;;;;;;;;;;4969939;28;95382;-82
2023/10/31 03:44:55;;;;;;;5.03;1.80;;;;;;;;;;4968502;28;94222;-83
2023/10/31 03:47:22;;;;;;;5.45;1.80;;;;;;;;;;4968954;28;92366;-82
2023/10/31 03:49:48;;;;;;;5.25;1.70;;;;;;;;;;4969452;28;93079;-80
2023/10/31 03:52:15;;;;;;;5.13;1.40;;;;;;;;;;4971835;28;93576;-81
2023/10/31 03:54:41;;;;;;;4.30;1.40;;;;;;;;;;4982625;28;92677;-81
2023/10/31 03:57:08;;;;;;;4.43;1.35;;;;;;;;;;4969721;28;92375;-82
2023/10/31 03:59:36;;;;;;;4.95;1.40;;;;;;;;;;4969795;28;93352;-82
2023/10/31 04:02:05;;;;;;;2.50;1.20;;;;;;;;;;4969634;28;93101;-82
2023/10/31 04:04:31;;;;;;;3.42;1.42;;;;;;;;;;4965192;28;96579;-81
2023/10/31 04:06:58;;;;;;;4.18;1.48;;;;;;;;;;4969061;28;92687;-83
2023/10/31 04:09:24;;;;;;;4.68;1.55;;;;;;;;;;4968669;28;99841;-83
2023/10/31 04:11:51;;;;;;;3.97;1.40;;;;;;;;;;4967597;28;96532;-83
2023/10/31 04:14:17;;;;;;;6.10;1.40;;;;;;;;;;4970865;28;92514;-82
2023/10/31 04:16:45;;;;;;;5.20;1.40;;;;;;;;;;4968721;28;93153;-81
2023/10/31 04:19:15;;;;;;;5.18;1.30;;;;;;;;;;4969661;28;93098;-81
2023/10/31 04:21:41;;;;;;;4.32;1.20;;;;;;;;;;4971465;28;92819;-81
2023/10/31 04:24:08;;;;;;;3.78;1.40;;;;;;;;;;4966825;28;96690;-82
2023/10/31 04:26:34;;;;;;;3.88;1.20;;;;;;;;;;4968798;28;92833;-81
2023/10/31 04:29:01;;;;;;;4.70;1.30;;;;;;;;;;4966920;28;95196;-82
2023/10/31 04:31:27;;;;;;;3.80;1.48;;;;;;;;;;4968768;28;92510;-82
2023/10/31 04:34:07;;;;;;;2.63;1.15;;;;;;;;;;4969008;28;92562;-82
2023/10/31 04:36:34;;;;;;;2.92;1.25;;;;;;;;;;4970511;28;92781;-84
2023/10/31 04:39:00;;;;;;;7.70;1.40;;;;;;;;;;4969174;28;92532;-82
2023/10/31 04:41:27;;;;;;;4.07;1.17;;;;;;;;;;4969175;28;93050;-82
2023/10/31 04:43:54;;;;;;;5.53;1.25;;;;;;;;;;4966956;28;96419;-83
2023/10/31 04:46:20;;;;;;;3.95;1.00;;;;;;;;;;4970006;28;91793;-82
2023/10/31 04:48:47;;;;;;;2.40;1.00;;;;;;;;;;4973472;28;92553;-82
2023/10/31 04:51:13;;;;;;;3.42;1.10;;;;;;;;;;4970597;28;92991;-83
2023/10/31 04:53:40;;;;;;;4.20;1.17;;;;;;;;;;4967950;28;95042;-83
2023/10/31 04:56:11;;;;;;;1.65;0.98;;;;;;;;;;4969506;28;95177;-83
2023/10/31 04:58:38;;;;;;;4.22;1.20;;;;;;;;;;4970750;28;97836;-83
2023/10/31 05:01:08;;;;;;;4.63;1.08;;;;;;;;;;4969853;28;92639;-82
2023/10/31 05:03:34;;;;;;;6.00;1.30;;;;;;;;;;4968732;28;94194;-82
2023/10/31 05:06:00;;;;;;;4.82;1.15;;;;;;;;;;4968455;28;92677;-82
2023/10/31 05:08:27;;;;;;;3.83;1.05;;;;;;;;;;4975841;28;94054;-82
2023/10/31 05:10:54;;;;;;;2.33;1.00;;;;;;;;;;4966663;28;95867;-81
2023/10/31 05:13:20;;;;;;;3.83;1.02;;;;;;;;;;4968108;28;92651;-82
2023/10/31 05:15:47;;;;;;;4.43;1.00;;;;;;;;;;4968331;28;93238;-81
2023/10/31 05:18:13;;;;;;;4.13;1.00;;;;;;;;;;4965629;28;95500;-81
2023/10/31 05:20:40;;;;;;;3.00;1.10;;;;;;;;;;4971714;28;92480;-81
2023/10/31 05:23:07;;;;;;;2.53;0.88;;;;;;;;;;4966065;28;94597;-81
2023/10/31 05:25:33;;;;;;;2.30;0.90;;;;;;;;;;4968357;28;92885;-82
2023/10/31 05:28:00;;;;;;;1.65;0.80;;;;;;;;;;4968462;28;92956;-81
2023/10/31 05:30:27;;;;;;;1.13;0.70;;;;;;;;;;4957211;28;93593;-81
2023/10/31 05:32:53;;;;;;;2.83;0.90;;;;;;;;;;4965449;28;92469;-82
2023/10/31 05:35:20;;;;;;;2.15;0.82;;;;;;;;;;4968641;28;93025;-82
2023/10/31 05:37:47;;;;;;;3.13;0.60;;;;;;;;;;4970741;28;95042;-82
2023/10/31 05:40:14;;;;;;;1.92;0.65;;;;;;;;;;4967783;28;92957;-81
2023/10/31 05:42:41;;;;;;;2.88;0.90;;;;;;;;;;4969069;28;94787;-81
2023/10/31 05:45:07;;;;;;;5.05;1.05;;;;;;;;;;4967962;28;93121;-81
2023/10/31 05:47:34;;;;;;;2.95;0.90;;;;;;;;;;4967794;28;92917;-81
2023/10/31 05:50:01;;;;;;;2.53;0.90;;;;;;;;;;4964040;28;96266;-81
2023/10/31 05:52:28;;;;;;;1.45;0.90;;;;;;;;;;4966634;28;92554;-81
2023/10/31 05:54:55;;;;;;;6.03;1.08;;;;;;;;;;4968270;28;92879;-81
2023/10/31 05:57:21;;;;;;;2.55;1.15;;;;;;;;;;4964360;28;93001;-80
2023/10/31 05:59:48;;;;;;;2.00;0.73;;;;;;;;;;4958245;28;92206;-81
2023/10/31 06:02:14;;;;;;;2.42;0.98;;;;;;;;;;4958259;28;92871;-80
2023/10/31 06:04:41;;;;;;;3.60;1.00;;;;;;;;;;4968109;28;92771;-80
2023/10/31 06:07:07;;;;;;;3.85;0.90;;;;;;;;;;4971044;28;94813;-80
2023/10/31 06:09:34;;;;;;;3.08;1.00;;;;;;;;;;4961616;28;93127;-82
2023/10/31 06:12:01;;;;;;;2.15;0.90;;;;;;;;;;4986965;28;92736;-81
2023/10/31 06:14:27;;;;;;;3.75;0.90;;;;;;;;;;4970178;28;93859;-81
2023/10/31 06:16:54;;;;;;;3.33;0.93;;;;;;;;;;4971573;28;92918;-81
2023/10/31 06:19:21;;;;;;;3.42;0.90;;;;;;;;;;4971990;28;92499;-82
2023/10/31 06:21:48;;;;;;;2.85;0.88;;;;;;;;;;4971338;28;92918;-81
2023/10/31 06:24:14;;;;;;;2.83;1.10;;;;;;;;;;4974578;28;93678;-83
2023/10/31 06:26:41;;;;;;;3.25;1.08;;;;;;;;;;4987295;28;95272;-82
2023/10/31 06:29:08;;;;;;;4.38;1.10;;;;;;;;;;4968686;28;93098;-83
2023/10/31 06:31:59;;;;;;;3.30;1.02;;;;;;;;;;4970645;28;95208;-83
2023/10/31 06:34:26;;;;;;;3.67;0.90;;;;;;;;;;4970994;28;95432;-82
2023/10/31 06:36:56;;;;;;;2.05;0.80;;;;;;;;;;4971096;28;93673;-82
2023/10/31 06:39:23;;;;;;;5.93;1.17;;;;;;;;;;4970457;28;92475;-82
2023/10/31 06:41:54;;;;;;;6.53;1.25;;;;;;;;;;4969824;28;95756;-83
2023/10/31 06:44:20;;;;;;;5.50;1.10;;;;;;;;;;4980752;28;96334;-83
2023/10/31 06:46:47;;;;;;;3.63;1.27;;;;;;;;;;4972826;28;92543;-83
2023/10/31 06:49:14;;;;;;;1.92;0.90;;;;;;;;;;4970191;28;92433;-82
2023/10/31 06:51:40;;;;;;;2.38;0.70;;;;;;;;;;4969207;28;92919;-81
2023/10/31 06:54:07;;;;;;;4.75;1.00;;;;;;;;;;4971306;28;93438;-80
2023/10/31 06:56:34;;;;;;;4.20;1.15;;;;;;;;;;4969359;28;95513;-81
2023/10/31 06:59:01;;;;;;;1.98;0.73;;;;;;;;;;4970219;28;93177;-81
2023/10/31 07:01:27;;;;;;;2.20;0.85;;;;;;;;;;4972910;28;93353;-81
2023/10/31 07:03:54;;;;;;;3.95;0.80;;;;;;;;;;4978772;28;93531;-81
2023/10/31 07:06:21;;;;;;;7.65;1.20;;;;;;;;;;4971927;28;92917;-80
2023/10/31 07:08:47;;;;;;;4.07;0.88;;;;;;;;;;4979272;28;92908;-82
2023/10/31 07:11:14;;;;;;;3.85;0.80;;;;;;;;;;4970489;28;92513;-83
2023/10/31 07:13:40;;;;;;;1.00;0.63;;;;;;;;;;4969453;28;95342;-83
2023/10/31 07:16:07;;;;;;;2.25;0.65;;;;;;;;;;4969868;28;92507;-82
2023/10/31 07:18:33;;;;;;;3.58;0.90;;;;;;;;;;4968889;28;92982;-82
2023/10/31 07:21:00;;;;;;;4.20;0.82;;;;;;;;;;4965841;28;95048;-84
2023/10/31 07:23:27;;;;;;;2.95;0.80;;;;;;;;;;4970244;28;94568;-85
2023/10/31 07:25:53;;;;;;;2.85;0.80;;;;;;;;;;4959853;28;92468;-84
2023/10/31 07:28:20;;;;;;;3.55;0.73;;;;;;;;;;4970751;28;92806;-84
2023/10/31 07:30:46;;;;;;;2.50;0.75;;;;;;;;;;4973228;28;93243;-85
2023/10/31 07:33:13;;;;;;;0.75;0.60;;;;;;;;;;4969997;28;92846;-86
2023/10/31 07:35:39;;;;;;;1.15;0.50;;;;;;;;;;4969846;28;93633;-84
2023/10/31 07:38:06;;;;;;;2.75;0.73;;;;;;;;;;4966811;28;92131;-84
2023/10/31 07:40:33;;;;;;;2.67;0.60;;;;;;;;;;4955734;28;94345;-85
2023/10/31 07:42:59;;;;;;;1.67;0.50;;;;;;;;;;4958138;28;93149;-86
2023/10/31 07:45:26;;;;;;;7.43;1.45;;;;;;;;;;4966434;28;95243;-81
2023/10/31 07:47:52;;;;;;;2.20;0.90;;;;;;;;;;4969262;28;95246;-81
2023/10/31 07:50:19;;;;;;;2.05;0.70;;;;;;;;;;4966656;28;93638;-80
2023/10/31 07:52:47;;;;;;;1.75;0.70;;;;;;;;;;4971599;28;92435;-81
2023/10/31 07:55:14;;;;;;;1.55;0.60;;;;;;;;;;4975770;28;93160;-80
2023/10/31 07:57:41;;;;;;;3.55;0.80;;;;;;;;;;4969493;28;92494;-81
2023/10/31 08:00:11;;;;;;;3.67;0.70;;;;;;;;;;4967582;28;94049;-81
2023/10/31 08:02:38;;;;;;;3.25;0.70;;;;;;;;;;4969508;28;97662;-80
2023/10/31 08:05:05;;;;;;;1.10;0.60;;;;;;;;;;4970359;28;93356;-80
2023/10/31 08:07:31;;;;;;;2.38;0.88;;;;;;;;;;4967494;28;92850;-80
2023/10/31 08:09:58;;;;;;;2.25;0.80;;;;;;;;;;4967985;28;95577;-81
2023/10/31 08:12:25;;;;;;;1.15;0.60;;;;;;;;;;4972073;28;93144;-81
2023/10/31 08:14:51;;;;;;;1.58;0.70;;;;;;;;;;4967668;28;93063;-80
2023/10/31 08:17:18;;;;;;;1.83;0.70;;;;;;;;;;4969087;28;93045;-80
2023/10/31 08:19:44;;;;;;;1.45;0.63;;;;;;;;;;4967643;28;95674;-80
2023/10/31 08:22:11;;;;;;;1.33;0.60;;;;;;;;;;4970354;28;93551;-79
2023/10/31 08:24:38;;;;;;;1.02;0.60;;;;;;;;;;4969076;28;92756;-80
2023/10/31 08:27:05;;;;;;;1.10;0.50;;;;;;;;;;4967813;28;93918;-81
2023/10/31 08:29:32;;;;;;;;;;;;;;;;;;4962998;28;93545;-80
2023/10/31 08:31:58;;;;;;;1.90;0.73;;;;;;;;;;4967951;28;110698;-80
2023/10/31 08:34:25;;;;;;;2.03;0.70;;;;;;;;;;4970273;28;94893;-79
2023/10/31 08:36:52;;;;;;;2.55;0.63;;;;;;;;;;4967183;28;93125;-80
2023/10/31 08:39:19;;;;;;;2.33;0.80;;;;;;;;;;4967674;28;94048;-79
2023/10/31 08:41:52;;;;;;;3.03;0.80;;;;;;;;;;4968894;28;93416;-79
2023/10/31 08:44:18;;;;;;;2.25;0.80;;;;;;;;;;4968245;28;93002;-78
2023/10/31 08:46:45;;;;;;;3.17;0.90;;;;;;;;;;4968952;28;93466;-79
2023/10/31 08:49:12;;;;;;;4.60;0.75;;;;;;;;;;4969164;28;93043;-79
2023/10/31 08:51:38;;;;;;;;;;;;;;;;;;4967280;28;91741;-79
2023/10/31 08:54:05;;;;;;;3.13;0.90;;;;;;;;;;4969027;28;92757;-79
2023/10/31 08:56:32;;;;;;;3.28;0.82;;;;;;;;;;4970538;28;92805;-79
2023/10/31 08:58:58;;;;;;;2.20;0.90;;;;;;;;;;4966940;28;95150;-78
2023/10/31 09:01:25;;;;;;;2.85;0.80;;;;;;;;;;4968779;28;93058;-78
2023/10/31 09:03:52;;;;;;;3.03;0.80;;;;;;;;;;4969143;28;92450;-78
2023/10/31 09:06:19;;;;;;;4.60;0.90;;;;;;;;;;4967992;28;92693;-79
2023/10/31 09:08:45;;;;;;;3.03;1.00;;;;;;;;;;4968907;28;93161;-79
2023/10/31 09:11:12;;;;;;;3.63;0.90;;;;;;;;;;4967815;28;92538;-79
2023/10/31 09:13:38;;;;;;;4.75;0.95;;;;;;;;;;4968778;28;92925;-78
2023/10/31 09:16:05;;;;;;;3.65;1.00;;;;;;;;;;4970117;28;92539;-78
2023/10/31 09:18:35;;;;;;;2.58;0.70;;;;;;;;;;4971569;28;93079;-77
2023/10/31 09:21:01;;;;;;;4.00;1.10;;;;;;;;;;4967239;28;94322;-77
2023/10/31 09:23:29;;;;;;;3.67;1.00;;;;;;;;;;4966975;28;95175;-77
2023/10/31 09:25:56;;;;;;;5.32;1.40;;;;;;;;;;4968183;28;95143;-79
2023/10/31 09:28:23;;;;;;;5.07;1.25;;;;;;;;;;4969366;28;93322;-79
2023/10/31 09:30:49;;;;;;;4.68;1.00;;;;;;;;;;4967025;28;92503;-80
2023/10/31 09:33:16;;;;;;;3.08;0.82;;;;;;;;;;4967911;28;92871;-80
2023/10/31 09:35:43;;;;;;;1.90;0.80;;;;;;;;;;4968176;28;93173;-80
2023/10/31 09:38:09;;;;;;;2.20;0.80;;;;;;;;;;4967876;28;92537;-80
2023/10/31 09:40:39;;;;;;;3.97;0.80;;;;;;;;;;4971391;28;98683;-80
2023/10/31 09:43:05;;;;;;;2.53;0.88;;;;;;;;;;4967250;28;92914;-80
2023/10/31 09:45:32;;;;;;;1.50;0.80;;;;;;;;;;4968133;28;92977;-80
2023/10/31 09:48:00;;;;;;;3.60;0.95;;;;;;;;;;4962933;28;95594;-80
2023/10/31 09:50:27;;;;;;;3.33;0.93;;;;;;;;;;4965293;28;92849;-80
2023/10/31 09:52:55;;;;;;;2.28;0.80;;;;;;;;;;4967237;28;92929;-80
2023/10/31 09:55:22;;;;;;;2.47;0.90;;;;;;;;;;4967909;28;93636;-80
2023/10/31 09:57:48;;;;;;;1.92;0.80;;;;;;;;;;4967682;28;92563;-80
2023/10/31 10:00:15;;;;;;;2.72;0.80;;;;;;;;;;4963913;28;95944;-81
2023/10/31 10:02:42;;;;;;;2.70;0.80;;;;;;;;;;4967872;28;93020;-80
2023/10/31 10:05:09;;;;;;;1.73;0.70;;;;;;;;;;4967960;28;92843;-80
2023/10/31 10:07:35;;;;;;;3.88;0.98;;;;;;;;;;4967141;28;93514;-80
2023/10/31 10:10:02;;;;;;;1.83;0.70;;;;;;;;;;4968124;28;93340;-80
2023/10/31 10:12:29;;;;;;;2.70;0.90;;;;;;;;;;4965079;28;95340;-80
2023/10/31 10:14:56;;;;;;;1.90;0.80;;;;;;;;;;4965504;28;93816;-80
2023/10/31 10:17:24;;;;;;;4.20;0.80;;;;;;;;;;4967305;28;92846;-80
2023/10/31 10:20:17;;;;;;;2.65;0.80;;;;;;;;;;4969874;28;92700;-80
2023/10/31 10:22:44;;;;;;;1.90;0.73;;;;;;;;;;4981255;28;97412;-80
2023/10/31 10:25:18;;;;;;;1.92;0.90;;;;;;;;;;4967055;28;92707;-81
2023/10/31 10:27:45;;;;;;;2.03;0.90;;;;;;;;;;4966867;28;93971;-81
2023/10/31 10:30:12;;;;;;;3.47;0.90;;;;;;;;;;4948542;28;93089;-80
2023/10/31 10:32:39;;;;;;;1.63;0.68;;;;;;;;;;4965529;28;92688;-80
2023/10/31 10:35:08;;;;;;;3.65;0.90;;;;;;;;;;4967541;28;92543;-81
2023/10/31 10:37:37;;;;;;;1.27;0.75;;;;;;;;;;4966196;28;95305;-81
2023/10/31 10:40:05;;;;;;;2.40;0.80;;;;;;;;;;4966095;28;95109;-80
2023/10/31 10:42:35;;;;;;;2.05;0.82;;;;;;;;;;4967942;28;93039;-80
2023/10/31 10:45:03;;;;;;;2.15;0.98;;;;;;;;;;4965653;28;92647;-81
2023/10/31 10:47:31;;;;;;;2.17;0.70;;;;;;;;;;4963816;28;92947;-81
2023/10/31 10:50:02;;;;;;;4.13;0.90;;;;;;;;;;4957235;28;92609;-81
2023/10/31 10:52:38;;;;;;;2.85;0.90;;;;;;;;;;4959314;28;95845;-80
2023/10/31 10:55:25;;;;;;;1.80;0.70;;;;;;;;;;4968663;28;92254;-80
2023/10/31 10:57:55;;;;;;;2.63;0.80;;;;;;;;;;4969913;28;92798;-81
2023/10/31 11:00:24;;;;;;;2.20;0.85;;;;;;;;;;4970401;28;93324;-80
2023/10/31 11:02:52;;;;;;;2.80;0.82;;;;;;;;;;4966514;28;96810;-80
2023/10/31 11:05:19;;;;;;;2.30;0.90;;;;;;;;;;4967520;28;92995;-81
2023/10/31 11:07:47;;;;;;;2.05;0.82;;;;;;;;;;4989310;28;92942;-80
2023/10/31 11:10:14;;;;;;;1.17;0.80;;;;;;;;;;4968639;28;92859;-80
2023/10/31 11:12:41;;;;;;;;;;;;;;;;;;4972117;28;92899;-80
2023/10/31 11:15:08;;;;;;;3.83;0.95;;;;;;;;;;4971750;28;111611;-80
2023/10/31 11:17:40;;;;;;;2.97;1.08;;;;;;;;;;4971268;28;92438;-80
2023/10/31 11:20:08;;;;;;;2.03;0.82;;;;;;;;;;4972105;28;92180;-80
2023/10/31 11:22:41;;;;;;;1.80;0.90;;;;;;;;;;4984489;28;95674;-81
2023/10/31 11:25:08;;;;;;;2.03;1.08;;;;;;;;;;4961812;27;93042;-80
2023/10/31 11:27:45;;;;;;;4.40;1.02;;;;;;;;;;4980670;28;95273;-80
2023/10/31 11:30:21;;;;;;;3.00;0.80;;;;;;;;;;4972259;28;95774;-79
2023/10/31 11:32:49;;;;;;;2.10;0.88;;;;;;;;;;4969562;28;94539;-80
2023/10/31 11:35:16;;;;;;;2.70;0.90;;;;;;;;;;4970626;28;93792;-81
2023/10/31 11:37:46;;;;;;;2.67;0.90;;;;;;;;;;4972060;28;92599;-81
2023/10/31 11:40:13;;;;;;;4.25;1.00;;;;;;;;;;4968642;28;93392;-80
2023/10/31 11:42:43;;;;;;;3.42;1.10;;;;;;;;;;4981206;28;94606;-80
2023/10/31 11:45:10;;;;;;;2.10;1.00;;;;;;;;;;4970607;28;92323;-81
2023/10/31 11:47:46;;;;;;;3.30;1.10;;;;;;;;;;4971142;28;93373;-81
2023/10/31 11:50:13;;;;;;;3.30;1.10;;;;;;;;;;4974330;28;93506;-81
2023/10/31 11:52:39;;;;;;;3.38;0.98;;;;;;;;;;4975843;28;95076;-81
2023/10/31 11:55:10;;;;;;;2.45;1.00;;;;;;;;;;4972883;28;93753;-82
2023/10/31 11:57:38;;;;;;;2.15;1.00;;;;;;;;;;4962568;28;92473;-81
2023/10/31 12:00:04;;;;;;;3.92;1.13;;;;;;;;;;4967386;28;94366;-81
2023/10/31 12:02:38;;;;;;;3.65;1.30;;;;;;;;;;4968494;28;96518;-81
2023/10/31 12:05:12;;;;;;;4.85;1.60;;;;;;;;;;4968794;28;92609;-81
2023/10/31 12:07:42;;;;;;;3.35;1.20;;;;;;;;;;4968740;28;93320;-81
2023/10/31 12:10:09;;;;;;;5.15;1.75;;;;;;;;;;4969278;28;92398;-81
2023/10/31 12:12:36;;;;;;;4.28;1.52;;;;;;;;;;4971204;28;92931;-81
2023/10/31 12:15:07;;;;;;;2.97;1.25;;;;;;;;;;4967791;28;92641;-80
2023/10/31 12:17:34;;;;;;;3.15;1.30;;;;;;;;;;4967026;28;95519;-82
2023/10/31 12:20:04;;;;;;;5.57;2.28;;;;;;;;;;4959400;28;97517;-81
2023/10/31 12:22:31;;;;;;;7.15;2.67;;;;;;;;;;4947057;28;93126;-81
2023/10/31 12:25:04;;;;;;;5.25;2.25;;;;;;;;;;4947894;28;92663;-81
2023/10/31 12:27:44;;;;;;;7.45;2.63;;;;;;;;;;4950710;28;93326;-81
2023/10/31 12:30:15;;;;;;;5.03;2.25;;;;;;;;;;4954237;28;93366;-79
2023/10/31 12:32:42;;;;;;;7.72;2.70;;;;;;;;;;4967668;28;92803;-83
2023/10/31 12:35:16;;;;;;;7.15;2.80;;;;;;;;;;4973522;28;94467;-81
2023/10/31 12:37:44;;;;;;;5.20;1.98;;;;;;;;;;4962570;28;92973;-82
2023/10/31 12:40:13;;;;;;;5.85;2.15;;;;;;;;;;4966187;28;92790;-81
2023/10/31 12:42:40;;;;;;;6.00;1.90;;;;;;;;;;4955543;28;95508;-82
2023/10/31 12:45:07;;;;;;;12.23;2.38;;;;;;;;;;4968813;28;92753;-80
2023/10/31 12:47:34;;;;;;;6.97;2.22;;;;;;;;;;4967208;28;93133;-80
2023/10/31 12:50:05;;;;;;;7.28;2.15;;;;;;;;;;4977405;28;93334;-80
2023/10/31 12:52:45;;;;;;;5.85;2.00;;;;;;;;;;4966994;28;92595;-80
2023/10/31 12:55:12;;;;;;;5.90;2.13;;;;;;;;;;4968405;28;92674;-80
2023/10/31 12:57:41;;;;;;;7.90;2.97;;;;;;;;;;4968956;28;93154;-81
2023/10/31 13:00:11;;;;;;;6.55;2.63;;;;;;;;;;4967872;28;91720;-80
2023/10/31 13:02:40;;;;;;;7.35;3.05;;;;;;;;;;4972850;28;99243;-80
2023/10/31 13:05:15;;;;;;;6.50;2.78;;;;;;;;;;4968577;28;92495;-81
2023/10/31 13:07:49;;;;;;;7.35;2.75;;;;;;;;;;4966072;28;95307;-80
2023/10/31 13:10:16;;;;;;;6.57;2.60;;;;;;;;;;4967061;28;93722;-80
2023/10/31 13:12:43;;;;;;;6.45;2.67;;;;;;;;;;4960833;28;93054;-81
2023/10/31 13:15:10;;;;;;;7.40;2.70;;;;;;;;;;4967109;28;92705;-81
2023/10/31 13:17:38;;;;;;;7.00;3.17;;;;;;;;;;4966375;28;93582;-80
2023/10/31 13:20:04;;;;;;;;;;;;;;;;;;4971038;28;92472;-81
2023/10/31 13:22:31;;;;;;;7.60;2.90;;;;;;;;;;4968638;28;113618;-81
2023/10/31 13:24:57;;;;;;;8.57;3.35;;;;;;;;;;4969734;28;91949;-81
2023/10/31 13:27:24;;;;;;;6.32;2.65;;;;;;;;;;4967673;28;93001;-81
2023/10/31 13:29:50;;;;;;;6.55;3.03;;;;;;;;;;4958017;28;93253;-80
2023/10/31 13:32:17;;;;;;;6.90;2.95;;;;;;;;;;4962577;28;95429;-80
2023/10/31 13:34:43;;;;;;;8.48;2.90;;;;;;;;;;4973168;28;95145;-80
2023/10/31 13:37:10;;;;;;;7.40;3.22;;;;;;;;;;4967330;28;94372;-80
2023/10/31 13:39:36;;;;;;;7.13;3.08;;;;;;;;;;4968596;28;92455;-80
2023/10/31 13:42:03;;;;;;;7.15;3.00;;;;;;;;;;4971543;28;93922;-81
2023/10/31 13:44:29;;;;;;;6.57;2.70;;;;;;;;;;4967643;28;92574;-80
2023/10/31 13:46:56;;;;;;;6.43;3.15;;;;;;;;;;4975007;28;92559;-80
2023/10/31 13:49:24;;;;;;;8.30;3.40;;;;;;;;;;4960722;28;92365;-80
2023/10/31 13:51:50;;;;;;;7.40;3.10;;;;;;;;;;4966766;28;92619;-81
2023/10/31 13:54:17;;;;;;;7.88;3.13;;;;;;;;;;4967563;28;92793;-80
2023/10/31 13:56:43;;;;;;;6.25;3.03;;;;;;;;;;4965465;28;95137;-80
2023/10/31 13:59:10;;;;;;;7.35;3.30;;;;;;;;;;4968036;28;93181;-80
2023/10/31 14:01:37;;;;;;;7.40;3.20;;;;;;;;;;4964964;28;94042;-81
2023/10/31 14:04:04;;;;;;;6.30;2.95;;;;;;;;;;4971220;28;93084;-80
2023/10/31 14:06:32;;;;;;;7.53;3.40;;;;;;;;;;4963498;28;93549;-79
2023/10/31 14:08:59;;;;;;;6.45;2.90;;;;;;;;;;4960640;28;93360;-81
2023/10/31 14:11:26;;;;;;;7.85;3.17;;;;;;;;;;4968564;28;92869;-83
2023/10/31 14:13:53;;;;;;;6.43;2.70;;;;;;;;;;4972318;28;93374;-82
2023/10/31 14:16:20;;;;;;;6.35;3.00;;;;;;;;;;4955187;28;94205;-82
2023/10/31 14:18:47;;;;;;;6.82;3.08;;;;;;;;;;4967097;28;92809;-84
2023/10/31 14:21:14;;;;;;;7.10;3.28;;;;;;;;;;4966508;28;94857;-86
2023/10/31 14:23:40;;;;;;;7.97;3.30;;;;;;;;;;4970690;28;93733;-80
2023/10/31 14:26:07;;;;;;;6.25;3.00;;;;;;;;;;4966206;28;92814;-83
2023/10/31 14:28:34;;;;;;;7.72;3.40;;;;;;;;;;4965772;28;93113;-82
2023/10/31 14:31:01;;;;;;;8.40;3.40;;;;;;;;;;4965648;28;92921;-82
2023/10/31 14:33:29;;;;;;;7.03;3.20;;;;;;;;;;4969518;28;92799;-83
2023/10/31 14:35:56;;;;;;;7.10;3.58;;;;;;;;;;4982791;28;92914;-81
2023/10/31 14:38:22;;;;;;;8.02;3.53;;;;;;;;;;4975008;28;93262;-79
2023/10/31 14:40:49;;;;;;;7.30;3.78;;;;;;;;;;4969989;28;92993;-81
2023/10/31 14:43:18;;;;;;;9.60;4.00;;;;;;;;;;4968256;28;93594;-80
2023/10/31 14:45:45;;;;;;;7.78;3.50;;;;;;;;;;4963202;28;95502;-79